createdAt,value
2018-08-10T00:04:51.268Z,53.60
2018-08-10T00:09:54.372Z,53.50
2018-08-10T00:14:57.498Z,53.50
2018-08-10T00:20:00.611Z,53.50
2018-08-10T00:25:04.693Z,53.60
2018-08-10T00:30:10.970Z,53.60
2018-08-10T00:35:14.065Z,53.70
2018-08-10T00:40:21.072Z,53.80
2018-08-10T00:45:24.170Z,53.90
2018-08-10T00:50:27.253Z,53.80
2018-08-10T00:55:30.354Z,53.90
2018-08-10T01:00:33.508Z,54.00
2018-08-10T01:05:36.587Z,53.90
2018-08-10T01:10:39.687Z,53.90
2018-08-10T01:15:42.759Z,54.10
2018-08-10T01:20:45.928Z,54.80
2018-08-10T01:25:49.023Z,54.20
2018-08-10T01:30:52.101Z,54.20
2018-08-10T01:35:55.181Z,54.30
2018-08-10T01:40:58.266Z,54.20
2018-08-10T01:46:01.349Z,54.10
2018-08-10T01:51:04.437Z,54.00
2018-08-10T01:56:07.529Z,53.90
2018-08-10T02:01:10.633Z,53.80
2018-08-10T02:06:13.709Z,53.90
2018-08-10T02:11:16.808Z,54.00
2018-08-10T02:16:26.286Z,54.00
2018-08-10T02:21:29.397Z,54.10
2018-08-10T02:26:32.467Z,54.00
2018-08-10T02:31:35.573Z,54.00
2018-08-10T02:36:38.785Z,54.00
2018-08-10T02:41:41.880Z,54.10
2018-08-10T02:46:44.978Z,53.90
2018-08-10T02:51:48.052Z,54.00
2018-08-10T02:56:51.172Z,54.00
2018-08-10T03:01:54.239Z,54.10
2018-08-10T03:06:57.314Z,54.00
2018-08-10T03:12:00.400Z,54.00
2018-08-10T03:17:03.485Z,54.20
2018-08-10T03:22:06.938Z,54.10
2018-08-10T03:27:09.928Z,54.10
2018-08-10T03:32:13.023Z,54.20
2018-08-10T03:37:16.085Z,54.20
2018-08-10T03:42:19.196Z,54.30
2018-08-10T03:47:22.276Z,54.20
2018-08-10T03:52:25.417Z,54.30
2018-08-10T03:57:28.516Z,54.30
2018-08-10T04:02:31.596Z,54.20
2018-08-10T04:07:34.692Z,54.20
2018-08-10T04:12:38.086Z,54.40
2018-08-10T04:17:41.319Z,54.30
2018-08-10T04:22:44.406Z,54.30
2018-08-10T04:27:47.488Z,54.50
2018-08-10T04:32:50.561Z,54.40
2018-08-10T04:37:53.678Z,54.50
2018-08-10T04:42:56.753Z,54.40
2018-08-10T04:48:02.217Z,54.50
2018-08-10T04:53:05.266Z,54.60
2018-08-10T04:58:08.389Z,54.70
2018-08-10T05:03:11.462Z,54.70
2018-08-10T05:08:14.556Z,54.80
2018-08-10T05:13:17.641Z,55.00
2018-08-10T05:18:20.735Z,55.00
2018-08-10T05:23:23.820Z,54.90
2018-08-10T05:28:26.931Z,54.80
2018-08-10T05:33:30.231Z,54.80
2018-08-10T05:38:33.350Z,54.80
2018-08-10T05:43:36.420Z,55.00
2018-08-10T05:48:40.569Z,54.90
2018-08-10T05:53:43.669Z,55.00
2018-08-10T05:58:46.747Z,55.00
2018-08-10T06:03:49.919Z,55.10
2018-08-10T06:08:52.933Z,55.20
2018-08-10T06:13:56.100Z,55.80
2018-08-10T06:18:59.164Z,55.10
2018-08-10T06:24:02.378Z,55.00
2018-08-10T06:29:05.544Z,54.90
2018-08-10T06:34:08.631Z,54.80
2018-08-10T06:39:11.893Z,54.90
2018-08-10T06:44:14.972Z,55.00
2018-08-10T06:49:18.049Z,54.80
2018-08-10T06:54:21.131Z,54.60
2018-08-10T06:59:24.278Z,54.30
2018-08-10T07:04:27.364Z,54.00
2018-08-10T07:09:30.440Z,54.00
2018-08-10T07:14:33.575Z,53.80
2018-08-10T07:19:36.687Z,53.70
2018-08-10T07:24:39.765Z,53.60
2018-08-10T07:29:42.855Z,53.50
2018-08-10T07:34:46.004Z,53.70
2018-08-10T07:39:49.127Z,53.30
2018-08-10T07:44:52.252Z,53.40
2018-08-10T07:49:55.441Z,53.50
2018-08-10T07:54:58.596Z,53.40
2018-08-10T08:00:01.684Z,53.10
2018-08-10T08:05:04.784Z,53.00
2018-08-10T08:10:07.909Z,52.70
2018-08-10T08:15:11.040Z,52.80
2018-08-10T08:20:14.133Z,52.70
2018-08-10T08:25:17.217Z,52.70
2018-08-10T08:30:20.328Z,52.90
2018-08-10T08:35:23.446Z,52.60
2018-08-10T08:40:26.680Z,52.40
2018-08-10T08:45:35.540Z,52.10
2018-08-10T08:50:40.650Z,51.70
2018-08-10T08:55:44.483Z,50.60
2018-08-10T09:00:47.605Z,50.00
2018-08-10T09:05:50.754Z,50.00
2018-08-10T09:10:55.129Z,50.00
2018-08-10T09:15:58.240Z,49.80
2018-08-10T09:21:01.344Z,49.60
2018-08-10T09:26:04.482Z,49.80
2018-08-10T09:31:07.594Z,48.80
2018-08-10T09:36:10.726Z,48.20
2018-08-10T09:41:13.819Z,48.00
2018-08-10T09:46:16.916Z,47.60
2018-08-10T09:51:20.084Z,48.20
2018-08-10T09:56:23.177Z,47.60
2018-08-10T10:01:26.271Z,46.40
2018-08-10T10:06:29.389Z,46.30
2018-08-10T10:11:32.502Z,46.10
2018-08-10T10:16:35.632Z,45.40
2018-08-10T10:21:38.736Z,45.20
2018-08-10T10:26:41.816Z,44.80
2018-08-10T10:31:44.959Z,44.50
2018-08-10T10:36:48.042Z,44.20
2018-08-10T10:41:51.149Z,44.30
2018-08-10T10:46:54.242Z,44.30
2018-08-10T10:51:57.351Z,43.90
2018-08-10T10:57:00.767Z,43.70
2018-08-10T11:02:03.814Z,43.10
2018-08-10T11:07:06.961Z,42.60
2018-08-10T11:12:21.861Z,42.20
2018-08-10T11:17:24.918Z,41.90
2018-08-10T11:22:28.030Z,41.80
2018-08-10T11:27:31.117Z,41.80
2018-08-10T11:38:01.489Z,41.80
2018-08-10T11:43:04.585Z,41.60
2018-08-10T11:48:07.676Z,41.10
2018-08-10T11:53:10.793Z,41.10
2018-08-10T11:58:13.873Z,41.20
2018-08-10T12:03:17.000Z,40.90
2018-08-10T12:08:20.075Z,41.00
2018-08-10T12:13:56.126Z,40.90
2018-08-10T12:18:59.276Z,41.10
2018-08-10T12:24:02.282Z,40.40
2018-08-10T12:29:05.424Z,40.40
2018-08-10T12:34:08.516Z,40.00
2018-08-10T12:39:13.434Z,39.70
2018-08-10T12:44:16.513Z,39.10
2018-08-10T12:49:19.704Z,39.30
2018-08-10T12:54:22.850Z,40.00
2018-08-10T12:59:25.917Z,39.60
2018-08-10T13:04:29.082Z,39.60
2018-08-10T13:09:32.189Z,39.40
2018-08-10T13:14:35.393Z,39.50
2018-08-10T13:19:38.500Z,40.20
2018-08-10T13:24:41.606Z,38.90
2018-08-10T13:29:45.126Z,39.50
2018-08-10T13:34:48.234Z,39.30
2018-08-10T13:39:51.372Z,39.20
2018-08-10T13:44:54.471Z,39.40
2018-08-10T13:49:57.665Z,39.40
2018-08-10T13:55:00.771Z,39.20
2018-08-10T14:00:04.915Z,38.80
2018-08-10T14:05:08.015Z,38.70
2018-08-10T14:10:11.969Z,38.60
2018-08-10T14:15:15.106Z,38.70
2018-08-10T14:20:18.205Z,39.00
2018-08-10T14:25:21.318Z,39.20
2018-08-10T14:30:24.402Z,39.10
2018-08-10T14:35:27.604Z,38.60
2018-08-10T14:40:30.759Z,38.10
2018-08-10T14:45:33.852Z,37.80
2018-08-10T14:50:36.944Z,36.80
2018-08-10T14:55:40.085Z,36.70
2018-08-10T15:00:43.287Z,36.60
2018-08-10T15:05:46.260Z,36.70
2018-08-10T15:10:49.395Z,36.90
2018-08-10T15:15:52.484Z,36.50
2018-08-10T15:20:55.596Z,35.70
2018-08-10T15:25:58.822Z,34.60
2018-08-10T15:31:01.929Z,34.40
2018-08-10T15:36:05.370Z,33.60
2018-08-10T15:41:08.502Z,32.90
2018-08-10T15:46:11.580Z,32.90
2018-08-10T15:51:14.721Z,32.40
2018-08-10T15:56:17.849Z,32.60
2018-08-10T16:01:20.917Z,32.70
2018-08-10T16:06:24.036Z,32.60
2018-08-10T16:11:27.128Z,32.90
2018-08-10T16:16:30.256Z,32.30
2018-08-10T16:21:33.493Z,32.70
2018-08-10T16:26:36.601Z,32.00
2018-08-10T16:31:39.701Z,32.30
2018-08-10T16:36:42.816Z,32.20
2018-08-10T16:41:46.565Z,32.30
2018-08-10T16:46:49.656Z,32.10
2018-08-10T16:51:52.749Z,32.20
2018-08-10T16:56:55.848Z,32.50
2018-08-10T17:01:58.948Z,32.50
2018-08-10T17:07:02.034Z,32.60
2018-08-10T17:12:05.276Z,32.70
2018-08-10T17:17:08.590Z,32.60
2018-08-10T17:22:11.668Z,32.40
2018-08-10T17:27:14.757Z,32.50
2018-08-10T17:32:17.861Z,32.20
2018-08-10T17:37:20.935Z,32.50
2018-08-10T17:42:24.022Z,32.80
2018-08-10T17:47:27.135Z,33.00
2018-08-10T17:52:30.233Z,33.00
2018-08-10T17:57:33.339Z,33.00
2018-08-10T18:02:36.454Z,33.10
2018-08-10T18:07:39.718Z,33.20
2018-08-10T18:12:43.607Z,32.90
2018-08-10T18:17:47.165Z,32.90
2018-08-10T18:22:51.357Z,32.90
2018-08-10T18:27:54.448Z,32.90
2018-08-10T18:32:57.557Z,33.10
2018-08-10T18:38:00.658Z,33.40
2018-08-10T18:43:03.756Z,33.50
2018-08-10T18:48:06.860Z,33.60
2018-08-10T18:53:09.976Z,33.90
2018-08-10T18:58:13.094Z,34.10
2018-08-10T19:03:16.206Z,34.30
2018-08-10T19:08:19.294Z,34.30
2018-08-10T19:13:22.381Z,34.50
2018-08-10T19:18:25.473Z,34.60
2018-08-10T19:23:28.597Z,34.50
2018-08-10T19:28:31.694Z,34.50
2018-08-10T19:33:34.837Z,34.70
2018-08-10T19:38:37.947Z,34.90
2018-08-10T19:43:41.062Z,35.20
2018-08-10T19:48:44.180Z,35.30
2018-08-10T19:53:47.283Z,35.70
2018-08-10T19:58:50.649Z,36.00
2018-08-10T20:03:53.799Z,36.00
2018-08-10T20:08:56.902Z,36.30
2018-08-10T20:13:59.998Z,36.40
2018-08-10T20:19:03.083Z,36.50
2018-08-10T20:24:06.184Z,36.40
2018-08-10T20:29:09.295Z,36.70
2018-08-10T20:34:12.394Z,36.20
2018-08-10T20:39:15.516Z,36.20
2018-08-10T20:44:18.637Z,36.40
2018-08-10T20:49:21.771Z,36.30
2018-08-10T20:54:25.037Z,36.30
2018-08-10T20:59:28.146Z,36.30
2018-08-10T21:04:31.335Z,36.60
2018-08-10T21:09:34.341Z,36.70
2018-08-10T21:14:38.361Z,36.70
2018-08-10T21:19:41.450Z,36.60
2018-08-10T21:24:44.543Z,36.80
2018-08-10T21:29:47.645Z,36.90
2018-08-10T21:34:50.742Z,36.90
2018-08-10T21:39:53.833Z,37.00
2018-08-10T21:44:56.950Z,37.20
2018-08-10T21:50:00.055Z,37.40
2018-08-10T21:55:03.188Z,37.80
2018-08-10T22:00:10.573Z,37.70
2018-08-10T22:05:13.694Z,37.80
2018-08-10T22:10:16.780Z,37.70
2018-08-10T22:15:26.313Z,37.90
2018-08-10T22:20:29.426Z,38.10
2018-08-10T22:25:32.528Z,37.80
2018-08-10T22:30:36.057Z,38.10
2018-08-10T22:35:39.540Z,38.20
2018-08-10T22:40:42.949Z,38.10
2018-08-10T22:45:46.060Z,38.20
2018-08-10T22:50:49.256Z,38.30
2018-08-10T22:55:52.345Z,38.30
2018-08-10T23:00:55.431Z,38.50
2018-08-10T23:05:58.560Z,38.70
2018-08-10T23:11:01.666Z,38.90
2018-08-10T23:16:04.830Z,38.90
2018-08-10T23:21:07.920Z,38.90
2018-08-10T23:26:11.412Z,39.00
2018-08-10T23:31:14.508Z,39.10
2018-08-10T23:36:17.612Z,39.20
2018-08-10T23:41:20.702Z,39.20
2018-08-10T23:46:23.784Z,39.20
2018-08-10T23:51:26.909Z,39.70
2018-08-10T23:56:29.997Z,39.60
